Time;durP1;ratioP1;P1;durP2;ratioP2;P2;SDS_P1;SDS_P2;PMS_P1;PMS_P2;Temp;Humidity;BMP_temperature;BMP_pressure;BME280_temperature;BME280_humidity;BME280_pressure;Samples;Min_cycle;Max_cycle;Signal;HPM_P1;HPM_P2
2022/08/02 00:02:18;;;;;;;1.65;1.30;;;;;;;12.48;98.86;101880.59;5076816;28;20028;-72
2022/08/02 00:04:43;;;;;;;3.65;1.52;;;;;;;12.51;98.61;101887.41;5076627;28;20028;-74
2022/08/02 00:07:08;;;;;;;1.50;1.20;;;;;;;12.55;99.25;101899.41;5078303;28;20031;-73
2022/08/02 00:09:34;;;;;;;3.15;1.33;;;;;;;12.57;98.75;101897.47;5081298;28;20036;-74
2022/08/02 00:12:00;;;;;;;5.75;1.27;;;;;;;12.47;99.08;101880.72;5072394;28;20067;-73
2022/08/02 00:14:25;;;;;;;4.57;1.45;;;;;;;12.45;100.00;101888.78;5075455;28;20112;-73
2022/08/02 00:16:51;;;;;;;1.73;1.27;;;;;;;12.42;100.00;101883.78;5077761;28;20471;-73
2022/08/02 00:19:16;;;;;;;3.95;1.08;;;;;;;12.40;100.00;101884.88;5072528;28;20027;-73
2022/08/02 00:21:41;;;;;;;2.95;1.25;;;;;;;12.32;100.00;101883.78;5083065;28;20123;-73
2022/08/02 00:24:07;;;;;;;1.63;0.82;;;;;;;12.31;100.00;101892.66;5081004;28;20115;-73
2022/08/02 00:26:33;;;;;;;5.53;1.67;;;;;;;12.20;100.00;101879.53;5079117;28;20043;-73
2022/08/02 00:28:58;;;;;;;2.10;1.73;;;;;;;12.26;100.00;101894.88;5079949;28;20044;-73
2022/08/02 00:31:23;;;;;;;0.75;0.55;;;;;;;12.23;100.00;101905.72;5076900;28;20031;-72
2022/08/02 00:33:49;;;;;;;2.28;1.25;;;;;;;12.20;100.00;101900.72;5084006;28;20049;-72
2022/08/02 00:36:14;;;;;;;2.95;1.23;;;;;;;12.16;100.00;101903.78;5082843;28;20426;-72
2022/08/02 00:38:40;;;;;;;1.95;0.90;;;;;;;12.19;100.00;101900.84;5080624;28;20103;-73
2022/08/02 00:41:12;;;;;;;2.05;1.02;;;;;;;12.11;100.00;101890.94;5078766;28;20029;-73
2022/08/02 00:43:37;;;;;;;1.73;1.05;;;;;;;12.14;100.00;101896.78;5082397;28;20023;-73
2022/08/02 00:46:03;;;;;;;4.20;2.10;;;;;;;12.11;100.00;101890.94;5067061;28;20039;-73
2022/08/02 00:48:28;;;;;;;1.85;1.75;;;;;;;12.08;100.00;101891.19;5070760;28;20050;-73
2022/08/02 00:50:55;;;;;;;3.45;1.35;;;;;;;12.02;100.00;101891.72;5059596;28;20025;-73
2022/08/02 00:53:20;;;;;;;1.80;1.08;;;;;;;11.95;100.00;101880.84;5077453;28;20032;-73
2022/08/02 00:55:46;;;;;;;1.98;1.27;;;;;;;12.01;100.00;101890.91;5082402;28;20047;-73
2022/08/02 00:58:11;;;;;;;5.82;1.70;;;;;;;11.81;100.00;101867.97;5071750;28;20028;-73
2022/08/02 01:00:37;;;;;;;6.57;1.77;;;;;;;11.88;100.00;101888.47;5079451;28;20016;-72
2022/08/02 01:03:02;;;;;;;2.83;1.25;;;;;;;11.74;100.00;101867.66;5080909;28;20032;-71
2022/08/02 01:05:27;;;;;;;1.48;0.80;;;;;;;11.84;100.00;101883.56;5082079;28;20020;-72
2022/08/02 01:07:53;;;;;;;1.40;1.00;;;;;;;11.82;100.00;101886.31;5079563;28;20028;-72
2022/08/02 01:10:18;;;;;;;1.42;1.00;;;;;;;11.59;100.00;101848.66;5061543;28;20651;-72
2022/08/02 01:12:46;;;;;;;1.20;0.90;;;;;;;11.74;100.00;101879.06;5071558;28;20489;-71
2022/08/02 01:15:12;;;;;;;1.45;0.95;;;;;;;11.72;100.00;101874.88;5081748;28;20088;-71
2022/08/02 01:18:02;;;;;;;1.48;1.02;;;;;;;11.62;100.00;101868.72;5072782;28;20244;-72
2022/08/02 01:20:39;;;;;;;1.42;0.98;;;;;;;11.52;100.00;101873.97;5076716;28;20187;-71
2022/08/02 01:23:23;;;;;;;1.73;0.95;;;;;;;11.50;100.00;101871.44;5077138;28;20020;-71
2022/08/02 01:26:14;;;;;;;2.28;1.23;;;;;;;11.36;100.00;101863.84;5077447;28;20048;-71
2022/08/02 01:28:46;;;;;;;0.88;0.68;;;;;;;11.48;100.00;101883.13;5080337;28;20028;-71
2022/08/02 01:31:37;;;;;;;1.38;0.98;;;;;;;11.48;100.00;101886.59;5075084;28;20048;-71
2022/08/02 01:34:14;;;;;;;2.58;1.02;;;;;;;11.48;100.00;101883.13;5072965;28;20035;-72
2022/08/02 01:36:48;;;;;;;7.43;1.38;;;;;;;11.49;100.00;101875.03;5066758;28;20035;-71
2022/08/02 01:39:18;;;;;;;2.35;1.27;;;;;;;11.36;100.00;101858.53;5073488;28;20027;-72
2022/08/02 01:41:45;;;;;;;3.33;1.13;;;;;;;11.32;100.00;101851.84;5069611;28;20107;-71
2022/08/02 01:44:12;;;;;;;2.10;1.23;;;;;;;11.33;100.00;101851.72;5072263;28;20033;-72
2022/08/02 01:46:41;;;;;;;1.48;0.90;;;;;;;11.24;100.00;101834.00;5070785;28;20406;-71
2022/08/02 01:49:14;;;;;;;3.42;1.40;;;;;;;11.28;100.00;101831.97;5068512;28;20384;-71
2022/08/02 01:54:30;;;;;;;1.15;0.63;;;;;;;11.30;100.00;101837.91;5069787;28;20057;-71
2022/08/02 01:56:57;;;;;;;1.13;0.70;;;;;;;11.27;100.00;101848.75;5074208;28;20111;-71
2022/08/02 01:59:25;;;;;;;1.02;0.82;;;;;;;11.23;100.00;101842.88;5065839;28;20013;-71
2022/08/02 02:01:54;;;;;;;1.90;1.00;;;;;;;11.24;100.00;101854.31;5064029;28;20044;-72
2022/08/02 02:04:21;;;;;;;1.70;0.82;;;;;;;11.27;100.00;101859.34;5067785;28;20591;-71
2022/08/02 02:06:48;;;;;;;4.82;1.23;;;;;;;11.24;100.00;101856.97;5068159;28;20035;-71
2022/08/02 02:09:14;;;;;;;4.03;1.15;;;;;;;11.29;100.00;101857.41;5083284;28;20127;-71
2022/08/02 02:11:45;;;;;;;1.38;1.10;;;;;;;11.23;100.00;101847.34;5071502;28;20028;-71
2022/08/02 02:14:12;;;;;;;3.08;1.00;;;;;;;11.20;100.00;101837.88;5050772;28;20063;-71
2022/08/02 02:16:41;;;;;;;1.55;1.17;;;;;;;11.17;100.00;101832.00;5082893;28;20028;-72
2022/08/02 02:19:08;;;;;;;2.03;0.90;;;;;;;11.09;100.00;101825.56;5074963;28;20039;-71
2022/08/02 02:21:33;;;;;;;0.77;0.77;;;;;;;11.14;100.00;101829.63;5074666;28;20146;-71
2022/08/02 02:23:59;;;;;;;4.88;1.75;;;;;;;11.14;100.00;101821.72;5073233;28;20388;-72
2022/08/02 02:26:27;;;;;;;3.60;1.80;;;;;;;11.13;100.00;101826.16;5071687;28;20056;-71
2022/08/02 02:28:55;;;;;;;2.55;1.23;;;;;;;11.06;100.00;101825.84;5075891;28;20496;-71
2022/08/02 02:31:21;;;;;;;1.83;1.25;;;;;;;11.04;100.00;101811.94;5079171;28;20082;-71
2022/08/02 02:33:55;;;;;;;9.60;1.15;;;;;;;11.10;100.00;101794.69;5075547;28;20048;-71
2022/08/02 02:36:21;;;;;;;5.72;1.10;;;;;;;11.09;100.00;101793.88;5068189;28;20030;-71
2022/08/02 02:38:48;;;;;;;1.85;0.68;;;;;;;11.12;100.00;101798.06;5064132;28;20024;-71
2022/08/02 02:41:17;;;;;;;1.65;1.05;;;;;;;11.05;100.00;101792.44;5069973;28;20064;-71
2022/08/02 02:43:43;;;;;;;4.78;0.95;;;;;;;10.94;100.00;101775.84;5067736;28;20028;-71
2022/08/02 02:46:10;;;;;;;5.22;1.42;;;;;;;11.00;100.00;101789.38;5076632;28;20013;-71
2022/08/02 02:48:36;;;;;;;1.63;0.82;;;;;;;11.00;100.00;101778.81;5079191;28;20033;-71
2022/08/02 02:51:07;;;;;;;2.05;0.93;;;;;;;11.01;100.00;101795.50;5081086;28;20478;-71
2022/08/02 02:53:35;;;;;;;5.32;1.98;;;;;;;11.00;100.00;101788.53;5059707;28;20024;-71
2022/08/02 02:56:01;;;;;;;4.32;1.17;;;;;;;11.00;100.00;101789.38;5077629;28;20048;-71
2022/08/02 02:58:27;;;;;;;1.80;0.98;;;;;;;11.01;100.00;101796.31;5072957;28;20024;-71
2022/08/02 03:03:37;;;;;;;1.58;1.05;;;;;;;10.98;100.00;101788.66;5075761;28;20035;-71
2022/08/02 03:06:03;;;;;;;2.97;1.27;;;;;;;10.90;100.00;101777.91;5082095;28;20036;-71
2022/08/02 03:08:28;;;;;;;1.80;1.38;;;;;;;10.98;100.00;101791.31;5061655;28;20025;-71
2022/08/02 03:10:54;;;;;;;1.77;1.50;;;;;;;10.92;100.00;101786.53;5074382;28;20035;-71
2022/08/02 03:13:20;;;;;;;1.35;1.20;;;;;;;10.99;100.00;101781.56;5075869;28;20040;-71
2022/08/02 03:15:46;;;;;;;4.57;1.42;;;;;;;10.87;100.00;101764.97;5080722;28;20477;-71
2022/08/02 03:18:36;;;;;;;3.17;1.77;;;;;;;10.99;100.00;101792.13;5072851;28;20028;-71
2022/08/02 03:21:04;;;;;;;1.38;0.80;;;;;;;11.00;100.00;101778.81;5074504;28;20107;-71
2022/08/02 03:23:30;;;;;;;2.03;1.02;;;;;;;11.01;100.00;101780.47;5075861;28;20020;-71
2022/08/02 03:25:55;;;;;;;1.83;1.08;;;;;;;11.01;100.00;101792.84;5080845;28;20048;-71
2022/08/02 03:28:20;;;;;;;3.20;1.38;;;;;;;11.00;100.00;101794.66;5075826;28;20123;-71
2022/08/02 03:30:46;;;;;;;1.10;0.80;;;;;;;11.01;100.00;101780.47;5072827;28;20040;-71
2022/08/02 03:33:11;;;;;;;2.65;1.35;;;;;;;10.93;100.00;101767.09;5081459;28;20492;-71
2022/08/02 03:35:40;;;;;;;8.32;1.45;;;;;;;11.00;100.00;101775.34;5075500;28;20016;-71
2022/08/02 03:38:06;;;;;;;3.17;1.67;;;;;;;10.99;100.00;101766.56;5077936;28;20035;-71
2022/08/02 03:40:32;;;;;;;1.67;1.00;;;;;;;10.98;100.00;101762.25;5079725;28;20032;-71
2022/08/02 03:42:59;;;;;;;4.25;1.35;;;;;;;10.95;100.00;101754.56;5076748;28;20449;-72
2022/08/02 03:45:25;;;;;;;4.55;1.38;;;;;;;10.94;100.00;101763.47;5073170;28;20534;-71
2022/08/02 03:47:51;;;;;;;1.90;1.52;;;;;;;10.93;100.00;101761.81;5056837;28;20409;-70
2022/08/02 03:50:18;;;;;;;1.63;1.23;;;;;;;10.91;100.00;101758.47;5079714;28;20066;-72
2022/08/02 03:52:44;;;;;;;7.88;1.92;;;;;;;10.79;100.00;101746.28;5070373;28;20029;-71
2022/08/02 03:55:11;;;;;;;7.82;1.90;;;;;;;10.88;100.00;101748.13;5080384;28;20032;-71
2022/08/02 03:57:41;;;;;;;4.90;1.60;;;;;;;10.82;100.00;101738.09;5072124;28;20029;-71
2022/08/02 04:00:08;;;;;;;2.13;1.45;;;;;;;10.75;100.00;101732.50;5074709;28;20115;-71
2022/08/02 04:02:35;;;;;;;3.30;1.65;;;;;;;10.86;100.00;101744.78;5076834;28;20033;-71
2022/08/02 04:05:00;;;;;;;3.08;1.08;;;;;;;10.86;100.00;101739.50;5075614;28;20395;-71
2022/08/02 04:07:26;;;;;;;6.75;1.15;;;;;;;10.86;100.00;101750.06;5080612;28;20055;-71
2022/08/02 04:09:51;;;;;;;3.58;1.80;;;;;;;10.89;100.00;101748.03;5076274;28;20064;-71
2022/08/02 04:12:16;;;;;;;1.42;1.13;;;;;;;10.90;100.00;101747.03;5076428;28;20024;-71
2022/08/02 04:14:42;;;;;;;5.35;2.67;;;;;;;10.92;100.00;101744.28;5077782;28;20469;-71
2022/08/02 04:17:10;;;;;;;3.30;1.92;;;;;;;10.94;100.00;101744.97;5074115;28;20024;-71
2022/08/02 04:19:38;;;;;;;3.78;2.72;;;;;;;10.98;100.00;101748.22;5072615;28;20473;-71
2022/08/02 04:22:06;;;;;;;2.10;1.60;;;;;;;10.90;100.00;101720.63;5073200;28;20158;-71
2022/08/02 04:24:43;;;;;;;9.98;1.85;;;;;;;10.98;100.00;101738.47;5076766;28;20016;-72
2022/08/02 04:27:09;;;;;;;3.10;0.70;;;;;;;10.92;100.00;101725.78;5069754;28;20060;-71
2022/08/02 04:29:36;;;;;;;2.75;1.58;;;;;;;10.99;100.00;101745.41;5078127;28;20488;-71
2022/08/02 04:32:03;;;;;;;4.60;1.65;;;;;;;11.03;100.00;101752.13;5075604;28;20066;-71
2022/08/02 04:34:29;;;;;;;3.95;2.60;;;;;;;11.04;100.00;101743.25;5076908;28;20024;-71
2022/08/02 04:36:56;;;;;;;2.13;1.63;;;;;;;11.10;100.00;101742.72;5079339;28;20035;-71
2022/08/02 04:39:21;;;;;;;2.60;1.65;;;;;;;11.03;100.00;101719.59;5073590;28;20123;-72
2022/08/02 04:41:47;;;;;;;1.85;1.30;;;;;;;11.11;100.00;101733.81;5042035;28;20195;-71
2022/08/02 04:44:12;;;;;;;2.88;1.40;;;;;;;11.09;100.00;101746.31;5072736;28;20488;-71
2022/08/02 04:46:39;;;;;;;4.45;2.08;;;;;;;11.04;100.00;101731.81;5072904;28;20028;-71
2022/08/02 04:49:05;;;;;;;1.10;0.90;;;;;;;11.18;100.00;101743.88;5074157;28;20024;-71
2022/08/02 04:51:34;;;;;;;2.88;1.50;;;;;;;11.13;100.00;101725.75;5073957;28;20051;-71
2022/08/02 04:53:59;;;;;;;2.50;1.75;;;;;;;11.33;100.00;101753.94;5058555;28;20305;-71
2022/08/02 04:56:25;;;;;;;3.38;1.98;;;;;;;11.18;100.00;101725.38;5072096;28;20134;-71
2022/08/02 04:58:50;;;;;;;4.47;1.88;;;;;;;11.23;100.00;101725.78;5055647;28;20089;-71
2022/08/02 05:01:15;;;;;;;2.95;1.58;;;;;;;11.35;100.00;101745.88;5072744;28;20040;-71
2022/08/02 05:03:41;;;;;;;3.35;1.38;;;;;;;11.36;100.00;101747.53;5074701;28;20032;-71
2022/08/02 05:06:06;;;;;;;6.15;1.55;;;;;;;11.43;100.00;101737.28;5070783;28;20025;-71
2022/08/02 05:08:31;;;;;;;2.50;1.40;;;;;;;11.51;100.00;101718.94;5076403;28;20122;-71
2022/08/02 05:10:57;;;;;;;1.58;1.13;;;;;;;11.60;100.00;101725.22;5074363;28;20032;-71
2022/08/02 05:13:22;;;;;;;4.90;2.72;;;;;;;11.72;100.00;101740.84;5073830;28;20029;-71
2022/08/02 05:15:49;;;;;;;9.10;2.85;;;;;;;11.84;100.00;101744.19;5074132;28;20024;-71
2022/08/02 05:18:14;;;;;;;9.60;2.00;;;;;;;11.96;100.00;101744.97;5070685;28;20020;-71
2022/08/02 05:20:40;;;;;;;2.67;2.33;;;;;;;12.03;100.00;101742.59;5074020;28;20134;-71
2022/08/02 05:23:05;;;;;;;2.95;1.73;;;;;;;12.14;100.00;101732.72;5070638;28;20074;-71
2022/08/02 05:25:30;;;;;;;8.38;1.67;;;;;;;12.25;100.00;101726.47;5073388;28;20024;-71
2022/08/02 05:27:56;;;;;;;4.05;1.90;;;;;;;12.44;100.00;101727.44;5072538;28;20039;-72
2022/08/02 05:30:21;;;;;;;1.70;1.60;;;;;;;12.58;100.00;101728.81;5057963;28;20028;-71
2022/08/02 05:32:49;;;;;;;2.25;1.60;;;;;;;12.54;100.00;101731.75;5074833;28;20032;-71
2022/08/02 05:35:20;;;;;;;5.38;1.80;;;;;;;12.60;100.00;101735.63;5071165;28;20036;-71
2022/08/02 05:37:46;;;;;;;3.13;1.67;;;;;;;12.70;100.00;101727.69;5070630;28;20067;-71
2022/08/02 05:40:12;;;;;;;4.05;1.50;;;;;;;12.85;100.00;101725.44;5072496;28;20036;-71
2022/08/02 05:42:37;;;;;;;6.90;2.22;;;;;;;12.95;100.00;101715.63;5069221;28;20024;-71
2022/08/02 05:45:04;;;;;;;2.15;1.38;;;;;;;13.09;100.00;101723.13;5075200;28;20024;-71
2022/08/02 05:47:29;;;;;;;2.15;1.40;;;;;;;13.23;100.00;101724.44;5072788;28;20025;-71
2022/08/02 05:49:55;;;;;;;1.73;1.60;;;;;;;13.44;100.00;101726.91;5071998;28;20074;-71
2022/08/02 05:52:25;;;;;;;7.97;3.20;;;;;;;13.53;100.00;101720.72;5067581;28;20484;-71
2022/08/02 05:55:01;;;;;;;2.65;1.95;;;;;;;13.59;100.00;101724.59;5079568;28;20028;-71
2022/08/02 05:57:45;;;;;;;4.40;2.00;;;;;;;13.62;100.00;101745.50;5071004;28;20028;-72
2022/08/02 06:00:12;;;;;;;2.97;1.35;;;;;;;13.58;100.00;101739.66;5072549;28;20028;-71
2022/08/02 06:02:38;;;;;;;2.78;1.38;;;;;;;13.65;100.00;101749.69;5056190;28;20024;-71
2022/08/02 06:05:10;;;;;;;8.82;1.80;;;;;;;13.64;100.00;101734.75;5074111;28;20051;-72
2022/08/02 06:07:36;;;;;;;3.08;1.23;;;;;;;13.81;100.00;101741.91;5075924;28;20447;-71
2022/08/02 06:10:06;;;;;;;3.13;1.95;;;;;;;13.91;100.00;101739.19;5071701;28;20638;-72
2022/08/02 06:12:40;;;;;;;1.80;1.33;;;;;;;14.02;100.00;101735.47;5056952;28;20027;-72
2022/08/02 06:15:06;;;;;;;4.25;1.60;;;;;;;14.27;100.00;101737.38;5071194;28;20073;-72
2022/08/02 06:17:31;;;;;;;2.08;1.60;;;;;;;14.27;99.94;101708.19;5073589;28;20021;-72
2022/08/02 06:19:59;;;;;;;2.17;1.70;;;;;;;14.48;99.06;101712.31;5073157;28;20031;-72
2022/08/02 06:22:26;;;;;;;2.42;1.88;;;;;;;14.71;98.33;101726.81;5076055;28;20388;-72
2022/08/02 06:24:54;;;;;;;5.40;1.83;;;;;;;14.94;97.20;101727.13;5074845;28;20236;-72
2022/08/02 06:27:20;;;;;;;5.97;1.75;;;;;;;15.02;96.18;101718.34;5077933;28;20500;-72
2022/08/02 06:29:48;;;;;;;3.78;1.98;;;;;;;15.27;95.43;101726.47;5075082;28;20039;-72
2022/08/02 06:32:18;;;;;;;2.45;1.65;;;;;;;15.44;94.70;101728.22;5075155;28;20472;-71
2022/08/02 06:34:44;;;;;;;2.95;1.77;;;;;;;15.36;94.16;101723.66;5075961;28;20017;-71
2022/08/02 06:37:25;;;;;;;2.70;1.88;;;;;;;15.33;94.45;101725.81;5075146;28;20518;-73
2022/08/02 06:39:57;;;;;;;5.35;1.90;;;;;;;15.50;93.88;101721.38;5074867;28;20062;-72
2022/08/02 06:42:43;;;;;;;3.95;1.58;;;;;;;15.58;93.82;101706.28;5077315;28;20021;-72
2022/08/02 06:45:09;;;;;;;10.25;2.47;;;;;;;15.85;92.32;101731.00;5076183;28;20073;-73
2022/08/02 06:47:34;;;;;;;2.20;1.70;;;;;;;15.94;90.54;101714.06;5076108;28;20024;-73
2022/08/02 06:49:59;;;;;;;3.55;1.67;;;;;;;16.33;90.83;101701.91;5077268;28;20206;-72
2022/08/02 06:52:27;;;;;;;1.75;1.25;;;;;;;16.83;90.18;101716.88;5074390;28;20052;-72
2022/08/02 06:54:52;;;;;;;6.32;1.95;;;;;;;17.14;87.87;101716.16;5073010;28;20028;-72
2022/08/02 06:57:17;;;;;;;5.28;1.92;;;;;;;17.32;86.99;101715.91;5075592;28;20034;-72
2022/08/02 06:59:43;;;;;;;2.13;1.13;;;;;;;17.54;84.94;101709.78;5059474;28;20047;-72
2022/08/02 07:02:10;;;;;;;4.80;1.88;;;;;;;17.38;84.07;101707.22;5075046;28;20036;-72
2022/08/02 07:04:36;;;;;;;3.67;1.30;;;;;;;17.76;83.06;101702.81;5070237;28;20020;-73
2022/08/02 07:07:01;;;;;;;4.20;1.08;;;;;;;18.04;82.00;101703.16;5074256;28;20537;-72
2022/08/02 07:09:27;;;;;;;2.15;1.17;;;;;;;18.60;80.52;101700.19;5073995;28;20066;-73
2022/08/02 07:11:52;;;;;;;4.28;1.23;;;;;;;18.76;78.48;101699.19;5073739;28;20032;-73
2022/08/02 07:14:18;;;;;;;4.35;1.40;;;;;;;18.42;78.79;101686.31;5076131;28;20326;-72
2022/08/02 07:16:43;;;;;;;3.97;1.95;;;;;;;18.76;78.78;101680.47;5073525;28;20634;-73
2022/08/02 07:19:08;;;;;;;1.77;0.98;;;;;;;19.11;78.03;101689.63;5075643;28;20050;-73
2022/08/02 07:21:34;;;;;;;1.40;1.10;;;;;;;19.71;77.00;101681.50;5073973;28;20032;-73
2022/08/02 07:23:59;;;;;;;3.85;1.10;;;;;;;19.87;73.91;101699.19;5074636;28;20024;-73
2022/08/02 07:26:24;;;;;;;3.13;1.38;;;;;;;19.01;76.00;101688.25;5077524;28;20045;-74
2022/08/02 07:28:50;;;;;;;2.75;1.23;;;;;;;19.19;76.03;101703.94;5072371;28;20024;-73
2022/08/02 07:31:15;;;;;;;7.93;1.60;;;;;;;19.58;75.23;101698.22;5075268;28;20032;-73
2022/08/02 07:33:40;;;;;;;3.70;1.05;;;;;;;19.94;74.53;101705.41;5074256;28;20032;-73
2022/08/02 07:36:07;;;;;;;2.83;0.75;;;;;;;20.04;72.89;101684.50;5074744;28;20397;-73
2022/08/02 07:38:33;;;;;;;2.28;1.13;;;;;;;20.35;72.63;101684.13;5071292;28;20066;-73
2022/08/02 07:40:58;;;;;;;3.03;0.90;;;;;;;20.53;74.56;101685.50;5073618;28;20025;-72
2022/08/02 07:43:24;;;;;;;5.13;1.10;;;;;;;21.21;71.20;101677.69;5076918;28;20032;-73
2022/08/02 07:45:49;;;;;;;5.75;1.27;;;;;;;21.34;68.76;101674.22;5073273;28;20545;-72
2022/08/02 07:48:14;;;;;;;3.90;0.80;;;;;;;21.06;68.30;101658.22;5075769;28;20036;-73
2022/08/02 07:50:40;;;;;;;4.30;1.25;;;;;;;21.02;68.11;101673.06;5074478;28;20036;-74
2022/08/02 07:53:05;;;;;;;2.65;1.15;;;;;;;21.55;67.12;101667.91;5072591;28;20040;-74
2022/08/02 07:55:30;;;;;;;1.25;0.70;;;;;;;21.42;64.79;101646.38;5075482;28;20023;-73
2022/08/02 07:57:56;;;;;;;6.05;0.80;;;;;;;21.45;64.60;101652.19;5076435;28;20151;-73
2022/08/02 08:00:21;;;;;;;3.70;0.98;;;;;;;21.54;62.61;101648.28;5075320;28;20028;-73
2022/08/02 08:02:46;;;;;;;2.88;0.63;;;;;;;22.07;64.62;101652.88;5073406;28;20031;-73
2022/08/02 08:05:13;;;;;;;2.42;0.93;;;;;;;22.34;63.66;101660.94;5073461;28;20024;-73
2022/08/02 08:07:38;;;;;;;2.72;0.90;;;;;;;22.17;62.67;101658.69;5074551;28;20039;-73
2022/08/02 08:10:05;;;;;;;3.50;1.20;;;;;;;22.64;63.29;101664.00;5077011;28;20114;-73
2022/08/02 08:12:30;;;;;;;1.38;0.55;;;;;;;22.90;60.69;101660.44;5059669;28;20583;-73
2022/08/02 08:14:56;;;;;;;1.20;0.52;;;;;;;23.45;59.88;101659.19;5071782;28;20123;-73
2022/08/02 08:17:21;;;;;;;3.15;1.15;;;;;;;23.15;59.61;101659.75;5075056;28;20427;-73
2022/08/02 08:19:47;;;;;;;2.72;1.05;;;;;;;23.18;60.15;101656.63;5075178;28;20078;-73
2022/08/02 08:22:13;;;;;;;1.98;0.80;;;;;;;23.04;60.73;101646.94;5071657;28;20052;-73
2022/08/02 08:24:38;;;;;;;0.60;0.38;;;;;;;24.30;58.88;101645.31;5076616;28;20070;-73
2022/08/02 08:27:04;;;;;;;1.20;0.60;;;;;;;24.34;56.49;101646.50;5072509;28;20049;-73
2022/08/02 08:29:30;;;;;;;4.22;1.05;;;;;;;23.37;59.98;101642.25;5071788;28;20021;-73
2022/08/02 08:31:55;;;;;;;1.77;0.55;;;;;;;23.11;59.22;101626.22;5072506;28;20034;-73
2022/08/02 08:34:22;;;;;;;3.15;1.00;;;;;;;23.48;58.11;101632.66;5073366;28;20025;-73
2022/08/02 08:36:48;;;;;;;3.42;0.63;;;;;;;23.18;55.29;101637.78;5069401;28;20028;-72
2022/08/02 08:39:14;;;;;;;1.52;0.38;;;;;;;23.66;56.13;101618.44;5057831;28;20028;-73
2022/08/02 08:41:42;;;;;;;1.65;0.70;;;;;;;23.81;56.63;101643.22;5073344;28;20141;-74
2022/08/02 08:44:08;;;;;;;0.95;0.60;;;;;;;23.79;56.41;101634.53;5071473;28;20649;-73
2022/08/02 08:46:36;;;;;;;2.60;0.85;;;;;;;24.32;56.81;101627.84;5078189;28;20033;-73
2022/08/02 08:49:35;;;;;;;4.40;0.70;;;;;;;24.11;56.80;101620.19;5071971;28;20028;-73
2022/08/02 08:52:05;;;;;;;2.05;0.68;;;;;;;23.39;59.25;101618.59;5068658;28;20060;-73
2022/08/02 08:54:32;;;;;;;2.72;0.80;;;;;;;23.39;59.23;101623.19;5072635;28;20078;-73
2022/08/02 08:56:58;;;;;;;2.83;0.77;;;;;;;23.98;57.93;101630.03;5074085;28;20438;-73
2022/08/02 08:59:23;;;;;;;1.60;0.55;;;;;;;23.94;56.16;101623.44;5073738;28;20489;-73
2022/08/02 09:01:50;;;;;;;1.40;0.80;;;;;;;24.38;56.23;101623.44;5075746;28;20055;-73
2022/08/02 09:04:17;;;;;;;1.17;0.60;;;;;;;25.31;54.80;101616.16;5068693;28;20488;-73
2022/08/02 09:06:42;;;;;;;0.63;0.30;;;;;;;25.80;51.71;101622.25;5077207;28;20111;-74
2022/08/02 09:09:08;;;;;;;0.80;0.50;;;;;;;25.41;53.15;101622.66;5071780;28;20115;-74
2022/08/02 09:11:33;;;;;;;2.15;0.82;;;;;;;25.15;52.33;101614.88;5074870;28;20667;-74
2022/08/02 09:14:00;;;;;;;1.00;0.50;;;;;;;24.92;51.81;101605.63;5072922;28;20084;-74
2022/08/02 09:16:36;;;;;;;2.28;0.80;;;;;;;24.83;51.72;101605.09;5072787;28;20255;-72
2022/08/02 09:19:23;;;;;;;0.98;0.40;;;;;;;25.03;51.05;101602.16;5073126;28;20418;-73
2022/08/02 09:21:50;;;;;;;1.85;0.30;;;;;;;25.51;49.26;101603.16;5070623;28;20119;-75
2022/08/02 09:24:21;;;;;;;0.75;0.47;;;;;;;24.85;49.25;101583.28;5075057;28;21057;-73
2022/08/02 09:26:48;;;;;;;0.80;0.60;;;;;;;24.83;50.93;101585.41;5072945;28;20048;-73
2022/08/02 09:29:16;;;;;;;2.38;0.55;;;;;;;25.44;49.77;101592.47;5073481;28;20127;-73
2022/08/02 09:31:42;;;;;;;3.83;0.52;;;;;;;26.56;49.03;101593.47;5075285;28;20028;-73
2022/08/02 09:34:08;;;;;;;0.65;0.30;;;;;;;26.29;48.77;101600.47;5068841;28;20129;-73
2022/08/02 09:36:42;;;;;;;0.70;0.40;;;;;;;25.64;50.01;101585.94;5071762;28;20028;-73
2022/08/02 09:39:10;;;;;;;0.73;0.40;;;;;;;26.08;50.17;101589.16;5070005;28;20430;-73
2022/08/02 09:41:39;;;;;;;0.88;0.43;;;;;;;26.24;50.31;101584.94;5072013;28;20105;-73
2022/08/02 09:44:08;;;;;;;3.67;0.70;;;;;;;26.15;48.91;101587.16;5073876;28;20444;-73
2022/08/02 09:46:42;;;;;;;2.45;0.73;;;;;;;25.50;49.41;101598.00;5080480;28;20476;-73
2022/08/02 09:49:11;;;;;;;1.70;0.70;;;;;;;25.04;50.43;101594.88;5072418;28;20051;-73
2022/08/02 09:51:56;;;;;;;0.60;0.43;;;;;;;25.20;51.42;101591.56;5072318;28;20016;-73
2022/08/02 09:54:24;;;;;;;0.90;0.30;;;;;;;25.58;51.17;101593.06;5069833;28;20566;-73
2022/08/02 09:56:54;;;;;;;1.83;0.55;;;;;;;25.10;51.44;101588.56;5072397;28;20028;-73
2022/08/02 09:59:23;;;;;;;2.85;0.50;;;;;;;24.32;52.71;101586.56;5066367;28;20048;-73
2022/08/02 10:01:49;;;;;;;1.58;0.75;;;;;;;24.43;54.37;101575.88;5075158;28;20055;-73
2022/08/02 10:04:18;;;;;;;1.13;0.73;;;;;;;24.58;54.18;101580.06;5070692;28;20067;-73
2022/08/02 10:06:43;;;;;;;1.20;0.60;;;;;;;25.26;52.14;101581.72;5068081;28;20028;-73
2022/08/02 10:09:11;;;;;;;1.35;0.70;;;;;;;25.80;51.96;101587.94;5076293;28;20074;-72
2022/08/02 10:11:36;;;;;;;2.10;0.82;;;;;;;26.14;52.07;101558.47;5064860;28;20020;-73
2022/08/02 10:14:04;;;;;;;1.30;0.50;;;;;;;26.23;51.04;101583.28;5073485;28;20557;-73
2022/08/02 10:16:32;;;;;;;3.25;0.98;;;;;;;26.32;51.49;101576.44;5072808;28;20063;-73
2022/08/02 10:18:59;;;;;;;2.33;0.63;;;;;;;26.26;51.92;101562.00;5070513;28;20435;-73
2022/08/02 10:21:43;;;;;;;0.70;0.60;;;;;;;26.36;53.38;101576.78;5079252;28;20483;-73
2022/08/02 10:24:10;;;;;;;2.97;0.60;;;;;;;26.78;52.79;101571.19;5074624;28;20111;-73
2022/08/02 10:26:39;;;;;;;2.53;0.80;;;;;;;27.43;50.51;101559.94;5075266;28;20466;-73
2022/08/02 10:29:04;;;;;;;5.97;0.80;;;;;;;26.93;51.15;101543.56;5070393;28;20025;-73
2022/08/02 10:31:54;;;;;;;2.92;1.20;;;;;;;27.05;52.88;101553.28;5074363;28;20027;-73
2022/08/02 10:34:26;;;;;;;3.40;0.75;;;;;;;27.07;52.77;101545.75;5070540;28;20507;-73
2022/08/02 10:36:52;;;;;;;0.88;0.63;;;;;;;26.94;53.89;101545.22;5073322;28;20547;-73
2022/08/02 10:39:18;;;;;;;6.93;1.00;;;;;;;26.55;53.95;101547.69;5064126;28;20404;-73
2022/08/02 10:41:45;;;;;;;1.05;0.50;;;;;;;26.80;53.59;101541.97;5052021;28;20029;-73
2022/08/02 10:44:29;;;;;;;1.08;0.63;;;;;;;27.13;54.43;101530.38;5072657;28;20099;-73
2022/08/02 10:47:13;;;;;;;1.23;0.70;;;;;;;26.09;54.81;101552.94;5073830;28;20499;-73
2022/08/02 10:49:54;;;;;;;1.33;0.70;;;;;;;25.88;55.40;101542.69;5067322;28;20048;-73
2022/08/02 10:52:24;;;;;;;4.97;1.08;;;;;;;26.58;55.77;101545.34;5072181;28;20103;-73
2022/08/02 10:54:57;;;;;;;1.42;0.88;;;;;;;26.28;56.91;101542.78;5076365;28;20462;-72
2022/08/02 10:57:26;;;;;;;1.20;0.90;;;;;;;27.24;55.91;101532.25;5070945;28;20017;-72
2022/08/02 10:59:57;;;;;;;3.70;0.90;;;;;;;28.86;51.61;101539.41;5074716;28;20024;-72
2022/08/02 11:02:39;;;;;;;3.67;1.13;;;;;;;28.56;52.73;101555.38;5071918;28;20381;-72
2022/08/02 11:05:10;;;;;;;1.48;0.93;;;;;;;28.48;52.46;101549.31;5073225;28;20074;-73
2022/08/02 11:07:44;;;;;;;1.63;0.80;;;;;;;27.79;52.82;101522.53;5079010;28;20485;-73
2022/08/02 11:10:24;;;;;;;1.75;1.30;;;;;;;26.70;55.82;101533.63;5075744;28;20392;-73
2022/08/02 11:12:59;;;;;;;;;;;;;;;27.26;55.87;101537.41;5076299;28;20161;-73
2022/08/02 11:15:25;;;;;;;2.00;0.80;;;;;;;26.94;56.75;101528.97;5075135;28;20292;-73
2022/08/02 11:17:53;;;;;;;2.78;1.25;;;;;;;27.33;54.82;101521.84;5076852;28;20051;-73
2022/08/02 11:20:20;;;;;;;1.42;0.90;;;;;;;27.00;55.99;101534.25;5077865;28;20074;-73
2022/08/02 11:22:47;;;;;;;1.88;1.40;;;;;;;26.62;56.68;101538.38;5080748;28;20214;-72
2022/08/02 11:25:24;;;;;;;2.45;1.25;;;;;;;26.42;57.98;101532.53;5073784;28;20081;-72
2022/08/02 11:28:16;;;;;;;2.25;0.73;;;;;;;26.93;57.06;101533.53;5039476;28;20037;-72
2022/08/02 11:30:41;;;;;;;4.25;1.15;;;;;;;27.46;56.30;101532.34;5037169;28;20057;-72
2022/08/02 11:33:07;;;;;;;1.50;0.88;;;;;;;28.23;53.21;101535.38;5038127;28;20029;-72